Skip Navigation LinksHome page > Weather > Current weather Skip Navigation Links

Current Weather

Phoenix Sky Harbor Intl, Phoenix, Ariz.

For information only: do not use for flight planning or navigation.
Latest weather
Observation time Thursday, November 21, 2019 12:15 PM MST
Local time Thursday, November 21, 2019 12:59 PM MST
Flight conditions Visual Meteorological Conditions
Winds
Wind direction East-Southeast (120°)
Wind speed 6 mph
Visibility 10 mi.
Sky condition
Ceiling 10,000 ft. broken clouds
Cloud layer few clouds 2,400 ft.
Cloud layer scattered clouds 5,500 ft.
Cloud layer broken clouds 10,000 ft.
Temperature 57°F
Dewpoint 51°F
Altimeter 29.89 in.Hg
Derived measurements
Relative humidity 81%
Density altitude 1221 ft.
Remarks
Automated weather observing station with precipitation discriminator.
METAR KPHX 211915Z 12005KT 10SM FEW024 SCT055 BKN100 14/11 A2989 RMK AO2 T01390106

Settings

Location code

InnerDrive.Weather 4.0.6770.0 Release CLR 4.0.30319.42000
Copyright ©2018 Inner Drive Technology. All rights reserved. Portions Copyright ©1986-2018 David Braverman.

Find weather

Site navigation


Skip Navigation Links

Place info

Page info

PayPal - The safer, easier way to pay online!

Return home.

Copyright ©2019 Inner Drive Technology. Purveyors of fine, hand-crafted computer software. Page printed 2019-11-21T19:59:53 UTC.